Time;durP1;ratioP1;P1;durP2;ratioP2;P2;SDS_P1;SDS_P2;PMS_P1;PMS_P2;Temp;Humidity;BMP_temperature;BMP_pressure;BME280_temperature;BME280_humidity;BME280_pressure;Samples;Min_cycle;Max_cycle;Signal;HPM_P1;HPM_P2
2022/01/18 00:02:11;;;;;;;67.80;7.88;;;7.30;99.90;;;;;;6198423;23;20031;-87
2022/01/18 00:04:39;;;;;;;69.43;7.32;;;7.30;99.90;;;;;;6200439;23;20052;-86
2022/01/18 00:07:25;;;;;;;64.22;7.50;;;7.30;99.90;;;;;;6175501;23;20059;-86
2022/01/18 00:10:30;;;;;;;59.28;7.28;;;7.30;99.90;;;;;;6176015;23;20092;-88
2022/01/18 00:18:18;;;;;;;65.60;6.82;;;7.40;99.90;;;;;;6247471;22;20154;-87
2022/01/18 00:21:00;;;;;;;69.20;7.13;;;7.30;99.90;;;;;;6200242;23;20350;-84
2022/01/18 00:23:33;;;;;;;61.40;6.75;;;7.40;99.90;;;;;;6177816;23;20452;-84
2022/01/18 00:25:59;;;;;;;66.70;8.57;;;7.40;99.90;;;;;;6197321;23;20445;-83
2022/01/18 00:28:33;;;;;;;63.65;7.93;;;7.40;99.90;;;;;;6201909;23;20075;-85
2022/01/18 00:36:24;;;;;;;79.93;7.65;;;7.40;99.90;;;;;;6227771;22;20016;-84
2022/01/18 00:39:42;;;;;;;57.92;8.25;;;7.40;99.90;;;;;;6177666;23;20020;-87
2022/01/18 00:42:17;;;;;;;66.25;7.30;;;7.40;99.90;;;;;;6149956;23;20047;-86
2022/01/18 00:44:48;;;;;;;64.03;7.63;;;7.40;99.90;;;;;;6173794;23;20013;-87
2022/01/18 00:47:14;;;;;;;56.53;7.40;;;7.30;99.90;;;;;;6175507;23;20409;-86
2022/01/18 00:49:44;;;;;;;66.47;7.22;;;7.30;99.90;;;;;;6174599;23;20095;-85
2022/01/18 00:52:42;;;;;;;57.15;6.78;;;7.30;99.90;;;;;;6175419;23;20012;-85
2022/01/18 00:55:36;;;;;;;63.83;7.60;;;7.30;99.90;;;;;;6177597;23;20578;-86
2022/01/18 00:58:02;;;;;;;57.33;6.60;;;7.30;99.90;;;;;;6176454;23;20381;-85
2022/01/18 01:00:31;;;;;;;64.93;8.27;;;7.30;99.90;;;;;;6173601;23;20024;-85
2022/01/18 01:03:09;;;;;;;63.63;8.18;;;7.30;99.90;;;;;;6174791;23;20248;-82
2022/01/18 01:06:07;;;;;;;68.00;6.72;;;7.30;99.90;;;;;;6176193;23;20075;-85
2022/01/18 01:09:04;;;;;;;53.88;7.20;;;7.30;99.90;;;;;;6176427;23;20012;-87
2022/01/18 01:11:43;;;;;;;66.20;7.55;;;7.30;99.90;;;;;;6203537;23;20020;-85
2022/01/18 01:14:15;;;;;;;55.90;7.05;;;7.20;99.90;;;;;;6201325;23;20099;-85
2022/01/18 01:34:55;;;;;;;54.50;7.00;;;7.10;99.90;;;;;;6204658;23;20375;-86
2022/01/18 01:46:02;;;;;;;68.88;7.30;;;7.00;99.90;;;;;;6225995;22;20070;-86
2022/01/18 01:48:58;;;;;;;66.97;8.05;;;7.00;99.90;;;;;;6173718;23;20095;-86
2022/01/18 01:52:03;;;;;;;70.45;9.05;;;6.90;99.90;;;;;;6199295;23;20027;-88
2022/01/18 01:54:48;;;;;;;53.50;7.07;;;7.00;99.90;;;;;;6190922;23;20469;-86
2022/01/18 01:57:24;;;;;;;68.25;6.93;;;6.90;99.90;;;;;;6178203;23;20016;-86
2022/01/18 01:59:59;;;;;;;66.93;8.45;;;6.90;99.90;;;;;;6171715;23;20013;-87
2022/01/18 02:02:41;;;;;;;65.18;8.32;;;6.90;99.90;;;;;;6175107;23;20358;-86
2022/01/18 02:05:09;;;;;;;66.70;8.70;;;6.80;99.90;;;;;;6175549;23;20342;-87
2022/01/18 02:07:38;;;;;;;60.47;8.43;;;6.90;99.90;;;;;;6176939;23;20059;-87
2022/01/18 02:10:17;;;;;;;70.25;8.18;;;6.80;99.90;;;;;;6195729;23;20020;-88
2022/01/18 02:12:48;;;;;;;63.22;8.40;;;6.90;99.90;;;;;;6203409;23;20112;-87
2022/01/18 02:15:17;;;;;;;65.28;8.13;;;6.90;99.90;;;;;;6176049;23;20025;-85
2022/01/18 02:23:28;;;;;;;72.95;9.23;;;6.80;99.90;;;;;;6226802;23;20020;-86
2022/01/18 02:26:07;;;;;;;67.88;9.85;;;6.80;99.90;;;;;;6174594;23;20016;-86
2022/01/18 02:28:36;;;;;;;80.55;9.43;;;6.80;99.90;;;;;;6177608;23;20039;-87
2022/01/18 02:31:26;;;;;;;61.25;9.68;;;6.80;99.90;;;;;;6119744;23;20028;-85
2022/01/18 02:34:15;;;;;;;59.55;8.25;;;6.80;99.90;;;;;;6067338;23;20100;-87
2022/01/18 02:36:42;;;;;;;71.93;8.90;;;6.80;99.90;;;;;;6090951;23;20009;-86
2022/01/18 02:42:43;;;;;;;64.90;9.23;;;6.80;99.90;;;;;;6165695;23;20050;-87
2022/01/18 02:45:35;;;;;;;82.75;9.02;;;6.70;99.90;;;;;;6177794;23;20020;-88
2022/01/18 02:48:01;;;;;;;89.10;10.30;;;6.80;99.90;;;;;;6207115;23;20016;-85
2022/01/18 02:50:45;;;;;;;62.28;9.10;;;6.70;99.90;;;;;;6178896;23;20013;-87
2022/01/18 02:53:26;;;;;;;73.47;9.02;;;6.80;99.90;;;;;;6176225;23;20012;-88
2022/01/18 03:05:53;;;;;;;59.67;8.68;;;6.70;99.90;;;;;;6076771;23;20357;-87
2022/01/18 03:08:30;;;;;;;51.35;9.60;;;6.70;99.90;;;;;;6086762;23;20032;-86
2022/01/18 03:14:21;;;;;;;55.60;8.80;;;6.70;99.90;;;;;;6205786;22;20062;-87
2022/01/18 03:16:53;;;;;;;52.47;8.43;;;6.70;99.90;;;;;;6176996;23;20008;-85
2022/01/18 03:19:21;;;;;;;46.42;7.30;;;6.70;99.90;;;;;;6179920;23;20102;-86
2022/01/18 03:21:53;;;;;;;47.47;7.13;;;6.70;99.90;;;;;;6181996;23;20048;-87
2022/01/18 03:31:05;;;;;;;47.53;6.80;;;6.60;99.90;;;;;;6228925;23;20022;-87
2022/01/18 03:33:37;;;;;;;41.00;6.47;;;6.60;99.90;;;;;;6174729;23;20012;-87
2022/01/18 03:36:39;;;;;;;57.10;7.13;;;6.60;99.90;;;;;;6183194;23;20107;-87
2022/01/18 03:39:08;;;;;;;52.35;6.60;;;6.60;99.90;;;;;;6181342;23;20183;-86
2022/01/18 03:41:40;;;;;;;52.33;6.93;;;6.60;99.90;;;;;;6180466;23;20373;-87
2022/01/18 03:44:14;;;;;;;41.42;5.60;;;6.60;99.90;;;;;;6180950;23;20074;-88
2022/01/18 03:46:58;;;;;;;38.78;6.65;;;6.60;99.90;;;;;;6181200;23;20015;-88
2022/01/18 03:50:04;;;;;;;41.42;6.53;;;6.60;99.90;;;;;;6140105;23;20104;-88
2022/01/18 03:53:12;;;;;;;;;;;;;;;;;;;;;
2022/01/18 03:56:04;;;;;;;35.60;5.85;;;6.60;99.90;;;;;;6051086;23;20019;-88
2022/01/18 03:59:03;;;;;;;43.50;5.78;;;6.60;99.90;;;;;;6092312;23;20059;-86
2022/01/18 04:01:28;;;;;;;45.30;5.63;;;6.60;99.90;;;;;;6091881;23;20406;-88
2022/01/18 04:03:59;;;;;;;38.30;5.28;;;6.60;99.90;;;;;;6167994;23;20115;-87
2022/01/18 04:07:05;;;;;;;;;;;;;;;;;;;;;
2022/01/18 04:10:16;;;;;;;33.92;4.75;;;6.60;99.90;;;;;;6121200;23;20020;-88
2022/01/18 04:13:17;;;;;;;42.03;5.53;;;6.70;99.90;;;;;;6122269;23;20021;-88
2022/01/18 04:36:54;;;;;;;31.10;5.07;;;6.60;99.90;;;;;;6233377;22;20538;-85
2022/01/18 04:39:23;;;;;;;31.20;5.68;;;6.60;99.90;;;;;;6183467;23;20103;-84
2022/01/18 04:48:43;;;;;;;39.55;7.80;;;6.50;99.90;;;;;;6201363;23;20309;-84
2022/01/18 04:51:28;;;;;;;39.42;6.43;;;6.50;99.90;;;;;;6183020;23;20079;-87
2022/01/18 04:54:41;;;;;;;;;;;6.40;99.90;;;;;;6208263;23;20023;-87
2022/01/18 04:59:39;;;;;;;34.38;6.03;;;6.40;99.90;;;;;;6230922;23;20016;-86
2022/01/18 05:02:11;;;;;;;29.58;5.13;;;6.40;99.90;;;;;;6180920;23;20016;-86
2022/01/18 05:05:11;;;;;;;22.00;3.92;;;6.50;99.90;;;;;;6183751;23;20012;-87
2022/01/18 05:07:38;;;;;;;30.27;5.03;;;6.40;99.90;;;;;;6183227;23;20012;-88
2022/01/18 05:10:49;;;;;;;36.20;5.50;;;6.40;99.90;;;;;;6183051;23;20349;-87
2022/01/18 05:17:33;;;;;;;;;;;;;;;;;;;;;
2022/01/18 05:24:39;;;;;;;37.65;5.50;;;6.40;99.90;;;;;;6234852;23;20070;-88
2022/01/18 05:27:36;;;;;;;34.65;4.80;;;6.40;99.90;;;;;;6208986;23;20016;-87
2022/01/18 05:31:06;;;;;;;22.30;3.97;;;6.30;99.90;;;;;;6237522;23;20015;-87
2022/01/18 05:34:44;;;;;;;;;;;;;;;;;;;;;
2022/01/18 05:37:45;;;;;;;24.65;5.18;;;6.40;99.90;;;;;;6160433;23;20027;-88
2022/01/18 05:41:05;;;;;;;32.55;5.75;;;6.40;99.90;;;;;;6188691;23;20011;-89
2022/01/18 05:44:26;;;;;;;27.25;5.72;;;6.40;99.90;;;;;;6142347;23;20013;-88
2022/01/18 05:48:17;;;;;;;31.95;5.35;;;6.30;99.90;;;;;;6017714;23;20014;-88
2022/01/18 05:51:30;;;;;;;37.70;5.30;;;6.30;99.90;;;;;;6067059;23;20171;-88
2022/01/18 05:54:32;;;;;;;30.25;4.45;;;6.30;99.90;;;;;;6050713;23;20803;-88
2022/01/18 05:57:22;;;;;;;;;;;6.30;99.90;;;;;;6016216;23;20030;-87
2022/01/18 06:00:52;;;;;;;27.95;3.88;;;6.30;99.90;;;;;;6085034;23;19948;-87
2022/01/18 06:07:26;;;;;;;;;;;;;;;;;;;;;
2022/01/18 06:10:23;;;;;;;41.15;5.40;;;6.30;99.90;;;;;;6100619;23;20074;-85
2022/01/18 06:13:41;;;;;;;28.90;4.10;;;6.30;99.90;;;;;;6090990;23;20013;-87
2022/01/18 06:16:31;;;;;;;24.58;3.88;;;6.30;99.90;;;;;;6172285;23;20024;-87
2022/01/18 06:19:31;;;;;;;19.38;3.72;;;6.30;99.90;;;;;;6116689;23;20342;-87
2022/01/18 06:30:05;;;;;;;27.27;3.70;;;6.30;99.90;;;;;;6062848;23;20030;-88
2022/01/18 06:33:14;;;;;;;;;;;6.30;99.90;;;;;;5942692;23;20023;-87
2022/01/18 10:06:40;;;;;;;25.35;6.38;;;6.90;99.90;;;;;;6207538;23;20016;-86
2022/01/18 10:43:40;;;;;;;19.95;5.68;;;7.40;99.90;;;;;;5996470;23;20022;-87
2022/01/18 10:51:31;;;;;;;21.38;5.18;;;7.50;99.90;;;;;;5939707;24;20489;-87
2022/01/18 10:54:35;;;;;;;14.88;4.28;;;7.50;99.90;;;;;;5969678;23;20024;-87
2022/01/18 11:01:59;;;;;;;;;;;;;;;;;;;;;
2022/01/18 11:05:35;;;;;;;16.65;5.07;;;7.60;99.90;;;;;;5967669;23;20124;-90
2022/01/18 11:18:57;;;;;;;21.38;5.45;;;7.60;99.90;;;;;;6236172;22;19926;-86
2022/01/18 11:21:36;;;;;;;23.65;4.57;;;7.60;99.90;;;;;;6209019;23;20212;-88
2022/01/18 11:24:15;;;;;;;24.45;5.70;;;7.60;99.90;;;;;;6161895;23;20020;-87
2022/01/18 11:27:20;;;;;;;20.42;5.65;;;7.60;99.90;;;;;;6154738;23;20015;-86
2022/01/18 11:29:58;;;;;;;21.73;4.55;;;7.70;99.90;;;;;;6035655;23;20089;-86
2022/01/18 11:32:30;;;;;;;19.98;4.38;;;7.70;99.90;;;;;;6125717;23;20068;-87
2022/01/18 11:35:47;;;;;;;18.85;4.00;;;7.70;99.90;;;;;;6137350;23;20008;-87
2022/01/18 11:38:41;;;;;;;26.08;4.75;;;7.70;99.90;;;;;;6155946;23;20064;-86
2022/01/18 11:41:39;;;;;;;15.75;4.47;;;7.80;99.90;;;;;;6154954;23;20012;-87
2022/01/18 11:44:30;;;;;;;21.75;4.85;;;7.80;99.90;;;;;;6154854;23;20031;-87
2022/01/18 11:47:27;;;;;;;16.23;4.05;;;7.70;99.90;;;;;;6154158;23;20424;-87
2022/01/18 11:50:18;;;;;;;16.55;4.50;;;7.70;99.90;;;;;;6132425;23;20449;-87
2022/01/18 11:53:36;;;;;;;;;;;;;;;;;;;;;
2022/01/18 11:56:34;;;;;;;23.77;5.88;;;7.70;99.90;;;;;;6176993;23;20361;-88
2022/01/18 12:02:47;;;;;;;14.02;3.88;;;7.70;99.90;;;;;;6178478;23;20331;-87
2022/01/18 12:05:42;;;;;;;19.48;4.32;;;7.70;99.90;;;;;;6152287;23;20055;-86
2022/01/18 12:08:52;;;;;;;19.42;4.40;;;7.70;99.90;;;;;;6127784;23;20076;-87
2022/01/18 12:11:27;;;;;;;16.40;3.28;;;7.70;99.90;;;;;;6132184;23;20103;-86
2022/01/18 12:14:21;;;;;;;17.58;4.18;;;7.70;99.90;;;;;;6151205;23;20016;-88
2022/01/18 12:17:21;;;;;;;16.02;4.15;;;7.60;99.90;;;;;;6152737;23;20020;-89
2022/01/18 12:19:47;;;;;;;23.25;4.60;;;7.60;99.90;;;;;;6129747;23;20380;-88
2022/01/18 12:22:15;;;;;;;20.08;4.93;;;7.60;99.90;;;;;;6153968;23;20016;-87
2022/01/18 12:24:46;;;;;;;21.58;4.72;;;7.60;99.90;;;;;;6153904;23;20027;-86
2022/01/18 12:27:35;;;;;;;21.45;4.57;;;7.60;99.90;;;;;;6134235;23;20299;-89
2022/01/18 12:30:38;;;;;;;17.55;4.28;;;7.50;99.90;;;;;;6129599;23;20047;-88
2022/01/18 12:33:23;;;;;;;17.02;4.00;;;7.60;99.90;;;;;;6155400;23;20321;-85
2022/01/18 12:36:28;;;;;;;16.95;3.42;;;7.60;99.90;;;;;;6131255;23;20055;-87
2022/01/18 12:39:03;;;;;;;19.98;3.88;;;7.50;99.90;;;;;;6153739;23;20023;-86
2022/01/18 12:42:03;;;;;;;14.93;3.70;;;7.50;99.90;;;;;;6154324;23;20342;-87
2022/01/18 12:44:49;;;;;;;17.35;3.65;;;7.50;99.90;;;;;;6177437;23;20012;-87
2022/01/18 12:47:30;;;;;;;15.43;3.38;;;7.50;99.90;;;;;;6151756;23;20015;-88
2022/01/18 12:50:05;;;;;;;17.88;4.20;;;7.40;99.90;;;;;;6146840;23;20435;-85
2022/01/18 12:53:16;;;;;;;14.73;3.53;;;7.40;99.90;;;;;;6152611;23;20013;-87
2022/01/18 12:56:17;;;;;;;15.82;3.70;;;7.40;99.90;;;;;;6147890;23;20070;-88
2022/01/18 12:58:49;;;;;;;18.77;3.35;;;7.40;99.90;;;;;;6132101;23;20509;-87
2022/01/18 13:01:41;;;;;;;19.67;4.47;;;7.40;99.90;;;;;;6154672;23;20016;-86
2022/01/18 13:04:20;;;;;;;16.90;3.42;;;7.40;99.90;;;;;;6152740;23;20012;-86
2022/01/18 13:06:51;;;;;;;15.32;3.92;;;7.40;99.90;;;;;;6177361;23;20048;-85
2022/01/18 13:09:46;;;;;;;15.38;3.45;;;7.40;99.90;;;;;;6128361;23;20450;-87
2022/01/18 13:12:34;;;;;;;18.08;3.90;;;7.40;99.90;;;;;;6176142;23;20028;-85
2022/01/18 13:15:34;;;;;;;13.15;3.25;;;7.30;99.90;;;;;;6166018;23;20409;-87
2022/01/18 13:28:02;;;;;;;11.88;2.92;;;7.30;99.90;;;;;;6203960;23;20024;-89
2022/01/18 13:30:35;;;;;;;17.10;3.35;;;7.20;99.90;;;;;;6144887;23;20354;-87
2022/01/18 13:33:06;;;;;;;15.85;3.45;;;7.20;99.90;;;;;;6177787;23;20319;-88
2022/01/18 13:40:06;;;;;;;16.55;3.85;;;7.20;99.90;;;;;;6107217;23;20017;-87
2022/01/18 13:43:27;;;;;;;14.93;4.18;;;7.20;99.90;;;;;;6200577;23;20100;-87
2022/01/18 13:52:58;;;;;;;20.60;4.18;;;7.20;99.90;;;;;;6228023;23;20101;-88
2022/01/18 13:56:28;;;;;;;;;;;;;;;;;;;;;
2022/01/18 13:59:35;;;;;;;15.90;3.78;;;7.20;99.90;;;;;;6178681;23;20024;-86
2022/01/18 14:02:14;;;;;;;17.15;3.50;;;7.20;99.90;;;;;;6107603;23;20020;-86
2022/01/18 14:04:42;;;;;;;18.67;4.57;;;7.20;99.90;;;;;;6153576;23;20101;-87
2022/01/18 14:07:47;;;;;;;14.30;4.47;;;7.20;99.90;;;;;;6176973;23;20021;-87
2022/01/18 14:10:27;;;;;;;22.75;5.30;;;7.20;99.90;;;;;;6087461;23;20421;-88
2022/01/18 14:16:47;;;;;;;19.80;5.28;;;7.20;99.90;;;;;;6165865;23;20076;-87
2022/01/18 14:20:20;;;;;;;18.20;5.30;;;7.10;99.90;;;;;;6155649;23;20357;-88
2022/01/18 14:23:51;;;;;;;17.60;6.10;;;7.10;99.90;;;;;;6034200;23;20090;-89
2022/01/18 14:26:30;;;;;;;23.58;6.10;;;7.00;99.90;;;;;;6020392;23;20129;-86
2022/01/18 14:29:38;;;;;;;30.52;6.25;;;6.90;99.90;;;;;;6036120;23;20625;-87
2022/01/18 14:32:45;;;;;;;25.98;5.75;;;7.00;99.90;;;;;;6011717;23;20014;-87
2022/01/18 14:35:47;;;;;;;;;;;;;;;;;;;;;
2022/01/18 14:39:13;;;;;;;;;;;;;;;;;;;;;
2022/01/18 14:42:41;;;;;;;28.88;6.55;;;6.90;99.90;;;;;;6091325;23;20033;-87
2022/01/18 14:45:58;;;;;;;21.85;6.60;;;6.90;99.90;;;;;;6083360;23;20450;-87
2022/01/18 14:48:36;;;;;;;27.02;7.25;;;6.80;99.90;;;;;;6030099;23;20425;-87
2022/01/18 14:51:46;;;;;;;18.65;6.05;;;6.80;99.90;;;;;;6084435;23;20525;-87
2022/01/18 14:54:31;;;;;;;24.13;6.70;;;6.80;99.90;;;;;;6120540;23;20020;-86
2022/01/18 15:04:43;;;;;;;32.78;7.13;;;6.60;99.90;;;;;;5970411;23;20122;-87
2022/01/18 15:08:00;;;;;;;24.30;7.07;;;6.60;99.90;;;;;;6001093;23;20020;-87
2022/01/18 15:10:46;;;;;;;25.15;7.50;;;6.60;99.90;;;;;;6077753;23;20057;-87
2022/01/18 15:14:08;;;;;;;33.35;7.45;;;6.60;99.90;;;;;;6106080;23;20278;-88
2022/01/18 15:16:36;;;;;;;26.25;7.15;;;6.60;99.90;;;;;;6022252;23;20105;-87
2022/01/18 15:19:15;;;;;;;24.77;7.20;;;6.50;99.90;;;;;;6145970;23;20264;-87
2022/01/18 15:22:09;;;;;;;26.33;6.82;;;6.50;99.90;;;;;;6152346;23;20021;-87
2022/01/18 15:25:21;;;;;;;;;;;;;;;;;;;;;
2022/01/18 15:28:19;;;;;;;;;;;;;;;;;;;;;
2022/01/18 15:31:35;;;;;;;32.95;7.72;;;6.40;99.90;;;;;;6011861;23;20030;-85
2022/01/18 15:38:22;;;;;;;25.63;6.90;;;6.40;99.90;;;;;;5914044;24;20025;-87
2022/01/18 15:41:38;;;;;;;33.50;7.38;;;6.40;99.90;;;;;;5911340;24;20032;-87
2022/01/18 16:25:04;;;;;;;61.55;18.75;;;6.10;99.90;;;;;;5994766;23;20674;-85
2022/01/18 16:46:14;;;;;;;66.35;22.88;;;5.80;99.90;;;;;;6226149;22;20028;-83
2022/01/18 16:48:46;;;;;;;72.72;23.35;;;5.80;99.90;;;;;;6178545;23;20420;-84
2022/01/18 16:56:02;;;;;;;67.30;24.40;;;5.80;99.90;;;;;;6044317;23;20069;-85
2022/01/18 17:14:38;;;;;;;;;;;;;;;;;;;;;
2022/01/18 17:17:09;;;;;;;82.60;25.73;;;5.60;99.90;;;;;;5863959;24;20033;-85
2022/01/18 17:24:18;;;;;;;;;;;;;;;;;;;;;
2022/01/18 17:27:03;;;;;;;80.90;26.23;;;5.50;99.90;;;;;;6023399;23;20024;-85
2022/01/18 17:37:32;;;;;;;85.60;21.75;;;5.40;99.90;;;;;;5999379;23;20066;-87
2022/01/18 17:43:16;;;;;;;60.03;16.67;;;5.40;99.90;;;;;;5973832;23;20020;-89
2022/01/18 17:53:48;;;;;;;;;;;;;;;;;;;;;
2022/01/18 18:46:58;;;;;;;76.35;20.38;;;4.90;99.90;;;;;;6235962;23;20018;-87
2022/01/18 18:50:27;;;;;;;79.80;20.77;;;4.90;99.90;;;;;;6211686;23;20063;-85
2022/01/18 18:53:14;;;;;;;77.60;21.02;;;4.90;99.90;;;;;;6181871;23;20048;-86
2022/01/18 18:56:39;;;;;;;82.88;22.58;;;4.90;99.90;;;;;;6236562;23;20453;-86
2022/01/18 18:59:55;;;;;;;81.15;21.50;;;4.90;99.90;;;;;;6143056;23;20020;-84
2022/01/18 19:02:26;;;;;;;71.30;21.05;;;4.90;99.90;;;;;;6052019;23;20021;-86
2022/01/18 19:04:55;;;;;;;89.07;21.50;;;4.90;99.90;;;;;;6143545;23;20442;-87
2022/01/18 19:07:30;;;;;;;66.35;19.23;;;4.90;99.90;;;;;;6071615;23;20013;-87
2022/01/18 19:10:30;;;;;;;72.72;20.00;;;4.90;99.90;;;;;;6093987;23;20043;-86
2022/01/18 19:14:09;;;;;;;68.88;20.02;;;4.80;99.90;;;;;;5992978;23;20086;-89
2022/01/18 19:17:16;;;;;;;81.00;20.65;;;4.80;99.90;;;;;;6027914;23;20084;-87
2022/01/18 19:20:04;;;;;;;76.40;21.58;;;4.90;99.90;;;;;;6113653;23;20022;-85
2022/01/18 19:22:36;;;;;;;82.63;21.83;;;4.80;99.90;;;;;;6094864;23;20842;-86
2022/01/18 19:33:06;;;;;;;86.13;22.92;;;4.80;99.90;;;;;;6178267;23;20029;-84
2022/01/18 19:35:48;;;;;;;;;;;;;;;;;;;;;
2022/01/18 19:38:26;;;;;;;74.90;21.95;;;4.80;99.90;;;;;;6152003;23;20009;-85
2022/01/18 19:47:27;;;;;;;82.85;22.10;;;4.60;99.90;;;;;;6235322;22;20764;-87
2022/01/18 19:50:36;;;;;;;;;;;;;;;;;;;;;
2022/01/18 19:53:45;;;;;;;62.97;18.17;;;4.60;99.90;;;;;;6207479;23;20094;-86
2022/01/18 19:56:32;;;;;;;58.67;16.10;;;4.50;99.90;;;;;;6197233;23;20016;-86
2022/01/18 19:59:25;;;;;;;66.47;18.20;;;4.50;99.90;;;;;;6154032;23;20815;-88
2022/01/18 20:02:41;;;;;;;62.25;17.40;;;4.50;99.90;;;;;;6147897;23;20079;-86
2022/01/18 20:05:30;;;;;;;76.55;19.10;;;4.50;99.90;;;;;;6183845;23;20021;-88
2022/01/18 20:07:59;;;;;;;67.72;18.27;;;4.40;99.90;;;;;;6156131;23;20012;-87
2022/01/18 20:10:25;;;;;;;70.30;17.42;;;4.40;99.90;;;;;;6155012;23;20473;-87
2022/01/18 20:13:05;;;;;;;70.90;18.83;;;4.50;99.90;;;;;;6179126;23;20376;-86
2022/01/18 20:29:23;;;;;;;;;;;4.40;99.90;;;;;;6244812;22;20479;-86
2022/01/18 20:32:16;;;;;;;58.35;16.85;;;4.40;99.90;;;;;;6208662;22;19911;-84
2022/01/18 20:35:11;;;;;;;51.17;16.67;;;4.30;99.90;;;;;;6216715;22;20018;-85
2022/01/18 20:38:25;;;;;;;62.30;18.25;;;4.30;99.90;;;;;;6215108;22;20018;-83
2022/01/18 20:40:58;;;;;;;56.72;18.30;;;4.20;99.90;;;;;;6181852;22;20375;-85
2022/01/18 20:43:48;;;;;;;59.22;18.58;;;4.30;99.90;;;;;;6241790;22;20016;-83
2022/01/18 20:46:47;;;;;;;;;;;;;;;;;;;;;
2022/01/18 20:53:47;;;;;;;79.13;20.35;;;4.30;99.90;;;;;;6146226;23;20049;-89
2022/01/18 22:02:13;;;;;;;115.68;29.95;;;4.30;99.90;;;;;;6176849;23;20024;-86
2022/01/18 22:05:22;;;;;;;116.72;31.20;;;4.50;99.90;;;;;;6010460;23;20475;-88
2022/01/18 22:08:14;;;;;;;104.07;27.10;;;4.40;99.90;;;;;;6165748;23;20524;-87
2022/01/18 22:10:40;;;;;;;122.70;32.17;;;4.50;99.90;;;;;;6204213;23;20024;-86
2022/01/18 22:13:36;;;;;;;117.25;31.17;;;4.40;99.90;;;;;;6177801;23;20023;-86
2022/01/18 22:20:24;;;;;;;136.52;32.53;;;4.50;99.90;;;;;;6051544;23;20018;-87
2022/01/18 22:27:18;;;;;;;121.55;32.13;;;4.50;99.90;;;;;;6084830;23;20017;-87
2022/01/18 22:29:51;;;;;;;112.95;32.00;;;4.50;99.90;;;;;;6075048;23;20025;-87
2022/01/18 22:36:17;;;;;;;131.07;33.60;;;4.50;99.90;;;;;;6078815;23;20315;-86
2022/01/18 22:41:58;;;;;;;136.90;33.78;;;4.50;99.90;;;;;;6048686;23;20025;-87
2022/01/18 22:53:16;;;;;;;;;;;;;;;;;;;;;
2022/01/18 23:00:54;;;;;;;126.93;34.10;;;4.50;99.90;;;;;;5968784;24;20049;-88
2022/01/18 23:03:31;;;;;;;115.82;33.38;;;4.60;99.90;;;;;;5945010;23;20019;-87
2022/01/18 23:10:04;;;;;;;127.68;34.25;;;4.50;99.90;;;;;;5906659;23;20083;-88
2022/01/18 23:12:33;;;;;;;122.70;34.47;;;4.60;99.90;;;;;;5982318;23;20090;-87
2022/01/18 23:15:11;;;;;;;125.50;35.05;;;4.50;99.90;;;;;;5952175;23;20020;-88
2022/01/18 23:21:31;;;;;;;123.00;35.35;;;4.60;99.90;;;;;;6112350;23;19916;-87
2022/01/18 23:24:16;;;;;;;133.35;37.70;;;4.50;99.90;;;;;;6111256;23;20018;-87
2022/01/18 23:30:49;;;;;;;133.07;34.90;;;4.50;99.90;;;;;;6061754;23;20028;-87
2022/01/18 23:34:07;;;;;;;123.75;35.55;;;4.50;99.90;;;;;;6127156;23;20053;-86
2022/01/18 23:36:41;;;;;;;130.65;38.35;;;4.60;99.90;;;;;;6139405;23;20013;-85
2022/01/18 23:42:42;;;;;;;125.30;37.13;;;4.60;99.90;;;;;;6176132;23;20394;-88
2022/01/18 23:53:00;;;;;;;102.90;33.22;;;4.60;99.90;;;;;;6235382;23;20092;-88
2022/01/18 23:55:26;;;;;;;117.72;37.10;;;4.60;99.90;;;;;;6204058;23;20021;-87
2022/01/18 23:57:52;;;;;;;110.60;32.78;;;4.50;99.90;;;;;;6178022;23;20027;-85
